createdAt,value
2018-07-22T00:00:08.310Z,0.00
2018-07-22T00:01:14.822Z,0.00
2018-07-22T00:02:21.332Z,0.00
2018-07-22T00:03:27.841Z,0.00
2018-07-22T00:04:34.859Z,0.00
2018-07-22T00:05:40.862Z,0.00
2018-07-22T00:06:47.390Z,0.00
2018-07-22T00:07:53.889Z,0.00
2018-07-22T00:09:00.409Z,0.00
2018-07-22T00:10:06.915Z,0.00
2018-07-22T00:11:13.442Z,0.00
2018-07-22T00:12:19.946Z,0.00
2018-07-22T00:13:26.455Z,0.00
2018-07-22T00:14:32.974Z,0.00
2018-07-22T00:15:39.490Z,0.00
2018-07-22T00:16:46.009Z,0.00
2018-07-22T00:17:52.530Z,0.00
2018-07-22T00:18:59.022Z,0.00
2018-07-22T00:20:05.530Z,0.00
2018-07-22T00:21:12.052Z,0.00
2018-07-22T00:22:18.562Z,0.00
2018-07-22T00:23:25.074Z,0.00
2018-07-22T00:24:31.585Z,0.00
2018-07-22T00:25:38.096Z,0.00
2018-07-22T00:26:44.610Z,0.00
2018-07-22T00:27:51.113Z,0.00
2018-07-22T00:28:57.612Z,0.00
2018-07-22T00:30:04.124Z,0.00
2018-07-22T00:31:10.627Z,0.00
2018-07-22T00:32:17.143Z,0.00
2018-07-22T00:33:23.643Z,0.00
2018-07-22T00:34:30.138Z,0.00
2018-07-22T00:35:36.641Z,0.00
2018-07-22T00:36:43.157Z,0.00
2018-07-22T00:37:49.660Z,0.00
2018-07-22T00:38:56.157Z,0.00
2018-07-22T00:40:02.661Z,0.00
2018-07-22T00:41:09.170Z,0.00
2018-07-22T00:42:15.689Z,0.00
2018-07-22T00:43:22.177Z,0.00
2018-07-22T00:44:28.689Z,0.00
2018-07-22T00:45:35.195Z,0.00
2018-07-22T00:46:41.692Z,0.00
2018-07-22T00:47:48.191Z,0.00
2018-07-22T00:48:54.686Z,0.00
2018-07-22T00:50:01.192Z,0.00
2018-07-22T00:51:07.693Z,0.00
2018-07-22T00:52:14.195Z,0.00
2018-07-22T00:53:20.694Z,0.00
2018-07-22T00:54:27.188Z,0.00
2018-07-22T00:55:33.691Z,0.00
2018-07-22T00:56:40.198Z,0.00
2018-07-22T00:57:46.696Z,0.00
2018-07-22T00:58:53.199Z,0.00
2018-07-22T00:59:59.814Z,0.00
2018-07-22T01:01:06.206Z,0.00
2018-07-22T01:02:12.713Z,0.00
2018-07-22T01:03:19.204Z,0.00
2018-07-22T01:04:25.704Z,0.00
2018-07-22T01:05:32.202Z,0.00
2018-07-22T01:06:38.713Z,0.00
2018-07-22T01:07:45.210Z,0.00
2018-07-22T01:08:51.700Z,0.00
2018-07-22T01:09:58.200Z,0.00
2018-07-22T01:11:04.699Z,0.00
2018-07-22T01:12:11.206Z,0.00
2018-07-22T01:13:17.684Z,0.00
2018-07-22T01:14:24.198Z,0.00
2018-07-22T01:15:30.675Z,0.00
2018-07-22T01:16:37.168Z,0.00
2018-07-22T01:17:43.662Z,0.00
2018-07-22T01:18:50.153Z,0.00
2018-07-22T01:19:56.637Z,0.00
2018-07-22T01:21:03.131Z,0.00
2018-07-22T01:22:09.636Z,0.00
2018-07-22T01:23:16.114Z,0.00
2018-07-22T01:24:22.606Z,0.00
2018-07-22T01:25:29.103Z,0.00
2018-07-22T01:26:35.588Z,0.00
2018-07-22T01:27:42.092Z,0.00
2018-07-22T01:28:48.580Z,0.00
2018-07-22T01:29:55.066Z,0.00
2018-07-22T01:31:01.564Z,0.00
2018-07-22T01:32:08.060Z,0.00
2018-07-22T01:33:14.563Z,0.00
2018-07-22T01:34:21.033Z,0.00
2018-07-22T01:35:27.542Z,0.00
2018-07-22T01:36:34.021Z,0.00
2018-07-22T01:37:40.525Z,0.00
2018-07-22T01:38:47.018Z,0.00
2018-07-22T01:39:53.504Z,0.00
2018-07-22T01:41:00.012Z,0.00
2018-07-22T01:42:07.505Z,0.00
2018-07-22T01:43:13.504Z,0.00
2018-07-22T01:44:19.495Z,0.00
2018-07-22T01:45:25.975Z,0.00
2018-07-22T01:46:32.480Z,0.00
2018-07-22T01:47:38.978Z,0.00
2018-07-22T01:48:45.472Z,0.00
2018-07-22T01:49:51.956Z,0.00
2018-07-22T01:50:58.456Z,0.00
2018-07-22T01:52:04.955Z,0.00
2018-07-22T01:53:11.448Z,0.00
2018-07-22T01:54:17.937Z,0.00
2018-07-22T01:55:24.450Z,0.00
2018-07-22T01:56:30.914Z,0.00
2018-07-22T01:57:37.412Z,0.00
2018-07-22T01:58:43.905Z,0.00
2018-07-22T01:59:50.390Z,0.00
2018-07-22T02:00:56.891Z,0.00
2018-07-22T02:02:03.389Z,0.00
2018-07-22T02:03:09.870Z,0.00
2018-07-22T02:04:16.366Z,0.00
2018-07-22T02:05:22.860Z,0.00
2018-07-22T02:06:29.357Z,0.00
2018-07-22T02:07:35.868Z,0.00
2018-07-22T02:08:42.346Z,0.00
2018-07-22T02:09:48.855Z,0.00
2018-07-22T02:10:55.340Z,0.00
2018-07-22T02:12:01.843Z,0.00
2018-07-22T02:13:08.342Z,0.00
2018-07-22T02:14:14.835Z,0.00
2018-07-22T02:15:21.319Z,0.00
2018-07-22T02:16:27.911Z,0.00
2018-07-22T02:17:34.318Z,0.00
2018-07-22T02:18:40.800Z,0.00
2018-07-22T02:19:47.291Z,0.00
2018-07-22T02:20:53.817Z,0.00
2018-07-22T02:22:00.265Z,0.00
2018-07-22T02:23:06.772Z,0.00
2018-07-22T02:24:13.260Z,0.00
2018-07-22T02:25:19.748Z,0.00
2018-07-22T02:26:26.243Z,0.00
2018-07-22T02:27:32.735Z,0.00
2018-07-22T02:28:39.217Z,0.00
2018-07-22T02:29:45.719Z,0.00
2018-07-22T02:30:52.200Z,0.00
2018-07-22T02:31:58.681Z,0.00
2018-07-22T02:33:05.175Z,0.00
2018-07-22T02:34:11.664Z,0.00
2018-07-22T02:35:18.164Z,0.00
2018-07-22T02:36:25.136Z,0.00
2018-07-22T02:37:31.138Z,0.00
2018-07-22T02:38:37.616Z,0.00
2018-07-22T02:39:44.095Z,0.00
2018-07-22T02:40:50.582Z,0.00
2018-07-22T02:41:57.074Z,0.00
2018-07-22T02:43:03.569Z,0.00
2018-07-22T02:44:10.051Z,0.00
2018-07-22T02:45:16.558Z,0.00
2018-07-22T02:46:23.027Z,0.00
2018-07-22T02:47:29.516Z,0.00
2018-07-22T02:48:35.997Z,0.00
2018-07-22T02:49:42.491Z,0.00
2018-07-22T02:50:48.983Z,0.00
2018-07-22T02:51:55.472Z,0.00
2018-07-22T02:53:01.967Z,0.00
2018-07-22T02:54:08.449Z,0.00
2018-07-22T02:55:15.439Z,0.00
2018-07-22T02:56:21.432Z,0.00
2018-07-22T02:57:27.912Z,0.00
2018-07-22T02:58:34.398Z,0.00
2018-07-22T02:59:40.885Z,0.00
2018-07-22T03:00:47.355Z,0.00
2018-07-22T03:01:53.842Z,4.00
2018-07-22T03:03:00.337Z,4.00
2018-07-22T03:04:06.814Z,4.00
2018-07-22T03:05:13.288Z,4.00
2018-07-22T03:06:19.773Z,4.00
2018-07-22T03:07:26.253Z,8.00
2018-07-22T03:08:32.747Z,4.00
2018-07-22T03:09:39.215Z,8.00
2018-07-22T03:10:45.708Z,8.00
2018-07-22T03:11:52.186Z,12.00
2018-07-22T03:12:58.672Z,12.00
2018-07-22T03:14:05.141Z,12.00
2018-07-22T03:15:11.822Z,16.00
2018-07-22T03:16:18.607Z,20.00
2018-07-22T03:17:24.599Z,24.00
2018-07-22T03:18:31.073Z,24.00
2018-07-22T03:19:37.543Z,28.00
2018-07-22T03:20:44.031Z,32.00
2018-07-22T03:21:50.500Z,36.00
2018-07-22T03:22:57.000Z,44.00
2018-07-22T03:24:03.457Z,48.00
2018-07-22T03:25:10.439Z,60.00
2018-07-22T03:26:16.422Z,68.00
2018-07-22T03:27:22.889Z,72.00
2018-07-22T03:28:29.898Z,88.00
2018-07-22T03:29:35.846Z,96.00
2018-07-22T03:30:42.323Z,108.00
2018-07-22T03:31:48.802Z,120.00
2018-07-22T03:32:55.285Z,136.00
2018-07-22T03:34:01.746Z,148.00
2018-07-22T03:35:08.230Z,164.00
2018-07-22T03:36:14.710Z,184.00
2018-07-22T03:37:21.184Z,204.00
2018-07-22T03:38:27.678Z,224.00
2018-07-22T03:39:34.143Z,244.00
2018-07-22T03:40:40.635Z,268.00
2018-07-22T03:41:47.106Z,288.00
2018-07-22T03:42:53.600Z,312.00
2018-07-22T03:44:00.074Z,340.00
2018-07-22T03:45:08.042Z,364.00
2018-07-22T03:46:13.033Z,392.00
2018-07-22T03:47:19.567Z,424.00
2018-07-22T03:48:25.993Z,448.00
2018-07-22T03:49:32.466Z,472.00
2018-07-22T03:50:38.947Z,500.00
2018-07-22T03:51:45.447Z,528.00
2018-07-22T03:52:52.401Z,556.00
2018-07-22T03:53:58.377Z,584.00
2018-07-22T03:55:04.859Z,616.00
2018-07-22T03:56:11.334Z,640.00
2018-07-22T03:57:17.894Z,668.00
2018-07-22T03:58:24.290Z,700.00
2018-07-22T03:59:30.766Z,728.00
2018-07-22T04:00:37.248Z,760.00
2018-07-22T04:01:43.721Z,792.00
2018-07-22T04:02:50.189Z,824.00
2018-07-22T04:03:56.676Z,852.00
2018-07-22T04:05:03.643Z,888.00
2018-07-22T04:06:09.626Z,932.00
2018-07-22T04:07:16.106Z,984.00
2018-07-22T04:08:22.583Z,1024.00
2018-07-22T04:09:29.063Z,1056.00
2018-07-22T04:10:35.530Z,1088.00
2018-07-22T04:11:42.020Z,1132.00
2018-07-22T04:12:48.500Z,1184.00
2018-07-22T04:13:54.987Z,1236.00
2018-07-22T04:15:01.463Z,1288.00
2018-07-22T04:16:07.956Z,1348.00
2018-07-22T04:17:14.436Z,1412.00
2018-07-22T04:18:20.922Z,1496.00
2018-07-22T04:19:27.411Z,1572.00
2018-07-22T04:20:33.892Z,1648.00
2018-07-22T04:21:40.388Z,1712.00
2018-07-22T04:22:46.874Z,1776.00
2018-07-22T04:23:53.374Z,1848.00
2018-07-22T04:24:59.861Z,1928.00
2018-07-22T04:26:06.354Z,2036.00
2018-07-22T04:27:13.339Z,2172.00
2018-07-22T04:28:19.352Z,2320.00
2018-07-22T04:29:25.844Z,2468.00
2018-07-22T04:30:32.341Z,2604.00
2018-07-22T04:31:38.849Z,2720.00
2018-07-22T04:32:45.335Z,2800.00
2018-07-22T04:33:51.843Z,2884.00
2018-07-22T04:34:58.337Z,2984.00
2018-07-22T04:36:04.851Z,3080.00
2018-07-22T04:37:11.892Z,3172.00
2018-07-22T04:38:17.864Z,3292.00
2018-07-22T04:39:24.368Z,3448.00
2018-07-22T04:40:30.867Z,3644.00
2018-07-22T04:41:37.380Z,3864.00
2018-07-22T04:42:43.877Z,4092.00
2018-07-22T04:43:50.402Z,4284.00
2018-07-22T04:44:56.913Z,4468.00
2018-07-22T04:46:03.419Z,4644.00
2018-07-22T04:47:09.944Z,4816.00
2018-07-22T04:48:16.477Z,4956.00
2018-07-22T04:49:23.486Z,5072.00
2018-07-22T04:50:29.519Z,5212.00
2018-07-22T04:51:36.033Z,5428.00
2018-07-22T04:52:42.564Z,5780.00
2018-07-22T04:53:49.102Z,6232.00
2018-07-22T04:54:55.629Z,6596.00
2018-07-22T04:56:02.161Z,6752.00
2018-07-22T04:57:08.708Z,6704.00
2018-07-22T04:58:15.245Z,6472.00
2018-07-22T04:59:21.901Z,6336.00
2018-07-22T05:00:28.343Z,6320.00
2018-07-22T05:01:34.898Z,6356.00
2018-07-22T05:02:41.456Z,6472.00
2018-07-22T05:03:48.025Z,6636.00
2018-07-22T05:04:54.579Z,6780.00
2018-07-22T05:06:01.149Z,6788.00
2018-07-22T05:07:07.715Z,6788.00
2018-07-22T05:08:14.283Z,6960.00
2018-07-22T05:09:20.857Z,7280.00
2018-07-22T05:10:27.413Z,7604.00
2018-07-22T05:11:34.001Z,7860.00
2018-07-22T05:12:40.572Z,7996.00
2018-07-22T05:13:47.157Z,8096.00
2018-07-22T05:14:53.729Z,8092.00
2018-07-22T05:16:00.310Z,8032.00
2018-07-22T05:17:06.906Z,8032.00
2018-07-22T05:18:13.488Z,8132.00
2018-07-22T05:19:20.082Z,8180.00
2018-07-22T05:20:26.665Z,8156.00
2018-07-22T05:21:33.258Z,8108.00
2018-07-22T05:22:39.850Z,8056.00
2018-07-22T05:23:46.449Z,7940.00
2018-07-22T05:24:53.044Z,7832.00
2018-07-22T05:25:59.627Z,7708.00
2018-07-22T05:27:06.222Z,7580.00
2018-07-22T05:28:12.850Z,7448.00
2018-07-22T05:29:19.430Z,7308.00
2018-07-22T05:30:26.022Z,7236.00
2018-07-22T05:31:32.629Z,7320.00
2018-07-22T05:32:39.234Z,7580.00
2018-07-22T05:33:45.909Z,7936.00
2018-07-22T05:34:52.425Z,8296.00
2018-07-22T05:35:59.077Z,8568.00
2018-07-22T05:37:05.626Z,8692.00
2018-07-22T05:38:12.222Z,8868.00
2018-07-22T05:39:19.329Z,9072.00
2018-07-22T05:40:25.431Z,9124.00
2018-07-22T05:41:32.032Z,9216.00
2018-07-22T05:42:41.660Z,9256.00
2018-07-22T05:43:45.268Z,9192.00
2018-07-22T05:44:51.867Z,9040.00
2018-07-22T05:45:58.483Z,8816.00
2018-07-22T05:47:05.087Z,8664.00
2018-07-22T05:48:11.708Z,8600.00
2018-07-22T05:49:18.326Z,8568.00
2018-07-22T05:50:24.921Z,8564.00
2018-07-22T05:51:31.536Z,8556.00
2018-07-22T05:52:38.157Z,8372.00
2018-07-22T05:53:44.775Z,8040.00
2018-07-22T05:54:51.387Z,7680.00
2018-07-22T05:55:57.995Z,7328.00
2018-07-22T05:57:04.594Z,7132.00
2018-07-22T05:58:11.199Z,7024.00
2018-07-22T05:59:17.901Z,6988.00
2018-07-22T06:00:24.424Z,6936.00
2018-07-22T06:01:31.022Z,6908.00
2018-07-22T06:02:38.624Z,7048.00
2018-07-22T06:03:44.233Z,7352.00
2018-07-22T06:04:50.853Z,7668.00
2018-07-22T06:05:57.455Z,8004.00
2018-07-22T06:07:04.060Z,8396.00
2018-07-22T06:08:10.674Z,8864.00
2018-07-22T06:09:17.289Z,9448.00
2018-07-22T06:10:23.898Z,10104.00
2018-07-22T06:11:30.523Z,10724.00
2018-07-22T06:12:37.142Z,11128.00
2018-07-22T06:13:43.784Z,11296.00
2018-07-22T06:14:50.413Z,11432.00
2018-07-22T06:15:57.507Z,11636.00
2018-07-22T06:17:03.677Z,11788.00
2018-07-22T06:18:10.324Z,11844.00
2018-07-22T06:19:16.987Z,11920.00
2018-07-22T06:20:23.635Z,11968.00
2018-07-22T06:21:30.283Z,12032.00
2018-07-22T06:22:36.952Z,12008.00
2018-07-22T06:23:43.615Z,11996.00
2018-07-22T06:24:50.286Z,12056.00
2018-07-22T06:25:57.434Z,12152.00
2018-07-22T06:27:03.617Z,12108.00
2018-07-22T06:28:10.286Z,12064.00
2018-07-22T06:29:16.965Z,12296.00
2018-07-22T06:30:23.620Z,12812.00
2018-07-22T06:31:30.293Z,13476.00
2018-07-22T06:32:36.968Z,14240.00
2018-07-22T06:33:43.655Z,14976.00
2018-07-22T06:34:50.341Z,15448.00
2018-07-22T06:35:57.012Z,15592.00
2018-07-22T06:37:03.711Z,15424.00
2018-07-22T06:38:10.382Z,15024.00
2018-07-22T06:39:17.090Z,14396.00
2018-07-22T06:40:23.767Z,13624.00
2018-07-22T06:41:30.462Z,12864.00
2018-07-22T06:42:37.158Z,12868.00
2018-07-22T06:43:43.855Z,13536.00
2018-07-22T06:44:50.550Z,14476.00
2018-07-22T06:45:57.250Z,15304.00
2018-07-22T06:47:04.953Z,16028.00
2018-07-22T06:48:10.656Z,16892.00
2018-07-22T06:49:17.382Z,18144.00
2018-07-22T06:50:24.088Z,19296.00
2018-07-22T06:51:30.819Z,20224.00
2018-07-22T06:52:37.560Z,20864.00
2018-07-22T06:53:44.295Z,21312.00
2018-07-22T06:54:51.061Z,21536.00
2018-07-22T06:55:57.893Z,21568.00
2018-07-22T06:57:04.573Z,21216.00
2018-07-22T06:58:11.329Z,20416.00
2018-07-22T06:59:18.112Z,19424.00
2018-07-22T07:00:24.862Z,18400.00
2018-07-22T07:01:31.624Z,17384.00
2018-07-22T07:02:38.392Z,16744.00
2018-07-22T07:03:45.157Z,16312.00
2018-07-22T07:04:51.987Z,15868.00
2018-07-22T07:05:58.680Z,15292.00
2018-07-22T07:07:05.434Z,14816.00
2018-07-22T07:08:12.193Z,14636.00
2018-07-22T07:09:18.959Z,14564.00
2018-07-22T07:10:25.710Z,14468.00
2018-07-22T07:11:32.467Z,14424.00
2018-07-22T07:12:39.227Z,14252.00
2018-07-22T07:13:45.972Z,13952.00
2018-07-22T07:14:52.736Z,13560.00
2018-07-22T07:15:59.495Z,13060.00
2018-07-22T07:17:06.244Z,12504.00
2018-07-22T07:18:13.000Z,12340.00
2018-07-22T07:19:19.760Z,12588.00
2018-07-22T07:20:26.514Z,13104.00
2018-07-22T07:21:33.258Z,13724.00
2018-07-22T07:22:40.016Z,14420.00
2018-07-22T07:23:46.762Z,14764.00
2018-07-22T07:24:53.531Z,14932.00
2018-07-22T07:26:00.279Z,14816.00
2018-07-22T07:27:07.049Z,14492.00
2018-07-22T07:28:13.899Z,14356.00
2018-07-22T07:29:20.590Z,14212.00
2018-07-22T07:30:27.365Z,14060.00
2018-07-22T07:31:34.120Z,14032.00
2018-07-22T07:32:40.914Z,14092.00
2018-07-22T07:33:47.672Z,14380.00
2018-07-22T07:34:54.448Z,14744.00
2018-07-22T07:36:01.213Z,14984.00
2018-07-22T07:37:07.995Z,14936.00
2018-07-22T07:38:14.779Z,14804.00
2018-07-22T07:39:21.550Z,14600.00
2018-07-22T07:40:28.346Z,14140.00
2018-07-22T07:41:35.132Z,13636.00
2018-07-22T07:42:41.906Z,13104.00
2018-07-22T07:43:48.693Z,12672.00
2018-07-22T07:44:55.501Z,12440.00
2018-07-22T07:46:02.242Z,12096.00
2018-07-22T07:47:09.024Z,11968.00
2018-07-22T07:48:15.794Z,11752.00
2018-07-22T07:49:22.561Z,11804.00
2018-07-22T07:50:29.338Z,11776.00
2018-07-22T07:51:36.092Z,11940.00
2018-07-22T07:52:42.858Z,11924.00
2018-07-22T07:53:49.627Z,11980.00
2018-07-22T07:54:56.412Z,12096.00
2018-07-22T07:56:03.159Z,12208.00
2018-07-22T07:57:09.921Z,12600.00
2018-07-22T07:58:16.687Z,13464.00
2018-07-22T07:59:23.452Z,14572.00
2018-07-22T08:00:30.219Z,15848.00
2018-07-22T08:01:36.981Z,16268.00
2018-07-22T08:02:43.760Z,16500.00
2018-07-22T08:03:50.586Z,16344.00
2018-07-22T08:04:57.323Z,15776.00
2018-07-22T08:06:04.119Z,15240.00
2018-07-22T08:07:10.893Z,14924.00
2018-07-22T08:08:17.690Z,14360.00
2018-07-22T08:09:24.478Z,14028.00
2018-07-22T08:10:31.274Z,14032.00
2018-07-22T08:11:38.063Z,14696.00
2018-07-22T08:12:44.854Z,15964.00
2018-07-22T08:13:51.660Z,16440.00
2018-07-22T08:14:58.467Z,15716.00
2018-07-22T08:16:05.273Z,14988.00
2018-07-22T08:17:12.083Z,14800.00
2018-07-22T08:18:18.876Z,15184.00
2018-07-22T08:19:25.682Z,15592.00
2018-07-22T08:20:32.500Z,15992.00
2018-07-22T08:21:40.083Z,16624.00
2018-07-22T08:22:46.115Z,17128.00
2018-07-22T08:23:52.939Z,16968.00
2018-07-22T08:24:59.760Z,15656.00
2018-07-22T08:26:06.589Z,15376.00
2018-07-22T08:27:13.400Z,14080.00
2018-07-22T08:28:20.217Z,13180.00
2018-07-22T08:29:27.027Z,12572.00
2018-07-22T08:30:33.889Z,12468.00
2018-07-22T08:31:40.668Z,12484.00
2018-07-22T08:32:47.470Z,13004.00
2018-07-22T08:33:54.267Z,14084.00
2018-07-22T08:35:01.077Z,14652.00
2018-07-22T08:36:07.888Z,14252.00
2018-07-22T08:37:14.688Z,14064.00
2018-07-22T08:38:21.506Z,14132.00
2018-07-22T08:39:28.314Z,14264.00
2018-07-22T08:40:35.128Z,14940.00
2018-07-22T08:41:41.938Z,14672.00
2018-07-22T08:42:48.734Z,15008.00
2018-07-22T08:43:55.548Z,15384.00
2018-07-22T08:45:02.387Z,15496.00
2018-07-22T08:46:09.183Z,15724.00
2018-07-22T08:47:15.999Z,15732.00
2018-07-22T08:48:22.826Z,14836.00
2018-07-22T08:49:29.636Z,14504.00
2018-07-22T08:50:36.464Z,14524.00
2018-07-22T08:51:43.274Z,14964.00
2018-07-22T08:52:51.099Z,15648.00
2018-07-22T08:53:56.927Z,16232.00
2018-07-22T08:55:03.753Z,16864.00
2018-07-22T08:56:10.579Z,16948.00
2018-07-22T08:57:17.403Z,16904.00
2018-07-22T08:58:25.232Z,17428.00
2018-07-22T08:59:31.073Z,18152.00
2018-07-22T09:00:37.905Z,18064.00
2018-07-22T09:01:44.739Z,17696.00
2018-07-22T09:02:51.580Z,17336.00
2018-07-22T09:03:58.409Z,17160.00
2018-07-22T09:05:05.256Z,17420.00
2018-07-22T09:06:12.092Z,16548.00
2018-07-22T09:07:18.932Z,16856.00
2018-07-22T09:08:25.769Z,17408.00
2018-07-22T09:09:32.610Z,18080.00
2018-07-22T09:10:39.459Z,19200.00
2018-07-22T09:11:46.370Z,19712.00
2018-07-22T09:12:53.134Z,20544.00
2018-07-22T09:14:00.019Z,22912.00
2018-07-22T09:15:06.862Z,24448.00
2018-07-22T09:16:13.737Z,23488.00
2018-07-22T09:17:20.615Z,24448.00
2018-07-22T09:18:27.505Z,24192.00
2018-07-22T09:19:34.422Z,24320.00
2018-07-22T09:20:41.898Z,24544.00
2018-07-22T09:21:48.230Z,24832.00
2018-07-22T09:22:55.140Z,25120.00
2018-07-22T09:24:02.071Z,24768.00
2018-07-22T09:25:09.000Z,24224.00
2018-07-22T09:26:15.932Z,23936.00
2018-07-22T09:27:22.864Z,25696.00
2018-07-22T09:28:29.892Z,25792.00
2018-07-22T09:29:36.727Z,25184.00
2018-07-22T09:30:43.674Z,24544.00
2018-07-22T09:31:50.600Z,23520.00
2018-07-22T09:32:57.546Z,22944.00
2018-07-22T09:34:04.495Z,22464.00
2018-07-22T09:35:11.439Z,22240.00
2018-07-22T09:36:18.419Z,22528.00
2018-07-22T09:37:26.326Z,23232.00
2018-07-22T09:38:32.280Z,24000.00
2018-07-22T09:39:39.231Z,23904.00
2018-07-22T09:40:46.198Z,23808.00
2018-07-22T09:41:53.176Z,22752.00
2018-07-22T09:43:00.099Z,22272.00
2018-07-22T09:44:07.071Z,22304.00
2018-07-22T09:45:14.037Z,22240.00
2018-07-22T09:46:21.319Z,22336.00
2018-07-22T09:47:27.979Z,22400.00
2018-07-22T09:48:34.950Z,22400.00
2018-07-22T09:49:41.925Z,22496.00
2018-07-22T09:50:48.897Z,22880.00
2018-07-22T09:51:55.915Z,23584.00
2018-07-22T09:53:02.852Z,24192.00
2018-07-22T09:54:09.838Z,24832.00
2018-07-22T09:55:16.831Z,25376.00
2018-07-22T09:56:23.906Z,25920.00
2018-07-22T09:57:30.813Z,26624.00
2018-07-22T09:58:37.905Z,26944.00
2018-07-22T09:59:44.825Z,27520.00
2018-07-22T10:00:51.841Z,28192.00
2018-07-22T10:01:58.854Z,28832.00
2018-07-22T10:03:05.872Z,29536.00
2018-07-22T10:04:12.898Z,29984.00
2018-07-22T10:05:19.938Z,30592.00
2018-07-22T10:06:26.974Z,31296.00
2018-07-22T10:07:34.019Z,32128.00
2018-07-22T10:08:41.060Z,32896.00
2018-07-22T10:09:48.108Z,33632.00
2018-07-22T10:10:55.181Z,34240.00
2018-07-22T10:12:02.235Z,34784.00
2018-07-22T10:13:09.311Z,35104.00
2018-07-22T10:14:16.457Z,35296.00
2018-07-22T10:15:23.481Z,35488.00
2018-07-22T10:16:30.561Z,35616.00
2018-07-22T10:17:37.663Z,35840.00
2018-07-22T10:18:44.745Z,36064.00
2018-07-22T10:19:51.849Z,36384.00
2018-07-22T10:20:58.957Z,36608.00
2018-07-22T10:22:06.061Z,36704.00
2018-07-22T10:23:13.183Z,36640.00
2018-07-22T10:24:20.291Z,36576.00
2018-07-22T10:25:27.410Z,36608.00
2018-07-22T10:26:34.601Z,36704.00
2018-07-22T10:27:41.674Z,36768.00
2018-07-22T10:28:48.804Z,36640.00
2018-07-22T10:29:55.924Z,36448.00
2018-07-22T10:31:03.068Z,36224.00
2018-07-22T10:32:10.689Z,36032.00
2018-07-22T10:33:17.341Z,35968.00
2018-07-22T10:34:24.481Z,35968.00
2018-07-22T10:35:31.621Z,36032.00
2018-07-22T10:36:38.769Z,36128.00
2018-07-22T10:37:45.910Z,36192.00
2018-07-22T10:38:53.045Z,36256.00
2018-07-22T10:40:00.196Z,36256.00
2018-07-22T10:41:07.368Z,36128.00
2018-07-22T10:42:14.515Z,36032.00
2018-07-22T10:43:21.746Z,35904.00
2018-07-22T10:44:28.853Z,35840.00
2018-07-22T10:45:36.025Z,35776.00
2018-07-22T10:46:43.191Z,35744.00
2018-07-22T10:47:50.364Z,35744.00
2018-07-22T10:48:58.041Z,35808.00
2018-07-22T10:50:04.730Z,35872.00
2018-07-22T10:51:11.916Z,35904.00
2018-07-22T10:52:19.104Z,35936.00
2018-07-22T10:53:26.341Z,36064.00
2018-07-22T10:54:33.483Z,36224.00
2018-07-22T10:55:40.671Z,36544.00
2018-07-22T10:56:47.866Z,36800.00
2018-07-22T10:57:55.060Z,36928.00
2018-07-22T10:59:02.267Z,37088.00
2018-07-22T11:00:09.961Z,37120.00
2018-07-22T11:01:16.689Z,37184.00
2018-07-22T11:02:24.900Z,37344.00
2018-07-22T11:03:31.100Z,37536.00
2018-07-22T11:04:38.315Z,37856.00
2018-07-22T11:05:45.533Z,38304.00
2018-07-22T11:06:52.753Z,38848.00
2018-07-22T11:07:59.980Z,39520.00
2018-07-22T11:09:07.203Z,40192.00
2018-07-22T11:10:14.442Z,40864.00
2018-07-22T11:11:21.686Z,41536.00
2018-07-22T11:12:28.932Z,42176.00
2018-07-22T11:13:36.186Z,42880.00
2018-07-22T11:14:43.487Z,43520.00
2018-07-22T11:15:51.217Z,44032.00
2018-07-22T11:16:58.026Z,44864.00
2018-07-22T11:18:05.888Z,46400.00
2018-07-22T11:19:12.668Z,48480.00
2018-07-22T11:20:20.040Z,50336.00
2018-07-22T11:21:27.471Z,56032.00
2018-07-22T11:22:34.905Z,66080.00
2018-07-22T11:23:42.378Z,59744.00
2018-07-22T11:24:50.158Z,70368.00
2018-07-22T11:25:57.354Z,92192.00
2018-07-22T11:27:04.932Z,130240.00
2018-07-22T11:28:12.600Z,101216.00
2018-07-22T11:29:20.827Z,112064.00
2018-07-22T11:30:28.111Z,123200.00
2018-07-22T11:31:35.947Z,120544.00
2018-07-22T11:32:43.831Z,115072.00
2018-07-22T11:33:51.767Z,112384.00
2018-07-22T11:34:59.726Z,113408.00
2018-07-22T11:36:07.762Z,115200.00
2018-07-22T11:37:16.739Z,113792.00
2018-07-22T11:38:23.765Z,114048.00
2018-07-22T11:39:31.901Z,113856.00
2018-07-22T11:40:39.900Z,112064.00
2018-07-22T11:41:47.983Z,111360.00
2018-07-22T11:42:56.110Z,108576.00
2018-07-22T11:44:04.188Z,104576.00
2018-07-22T11:45:12.271Z,27232.00
2018-07-22T11:46:20.233Z,85472.00
2018-07-22T11:47:28.188Z,97536.00
2018-07-22T11:48:36.639Z,104192.00
2018-07-22T11:49:44.111Z,108480.00
2018-07-22T11:50:52.108Z,108256.00
2018-07-22T11:52:00.154Z,107200.00
2018-07-22T11:53:08.194Z,97888.00
2018-07-22T11:54:16.260Z,92224.00
2018-07-22T11:55:24.343Z,93888.00
2018-07-22T11:56:32.434Z,93856.00
2018-07-22T11:57:40.529Z,94368.00
2018-07-22T11:58:48.623Z,101184.00
2018-07-22T11:59:56.716Z,106240.00
2018-07-22T12:01:04.801Z,107520.00
2018-07-22T12:02:12.905Z,106816.00
2018-07-22T12:03:21.004Z,109440.00
2018-07-22T12:04:29.158Z,107520.00
2018-07-22T12:05:37.232Z,107648.00
2018-07-22T12:06:45.365Z,104448.00
2018-07-22T12:07:53.503Z,108992.00
2018-07-22T12:09:01.645Z,108320.00
2018-07-22T12:10:09.899Z,103680.00
2018-07-22T12:11:17.993Z,101440.00
2018-07-22T12:12:26.210Z,100160.00
2018-07-22T12:13:34.355Z,104640.00
2018-07-22T12:14:42.535Z,106688.00
2018-07-22T12:15:50.748Z,106848.00
2018-07-22T12:16:58.961Z,86944.00
2018-07-22T12:18:07.152Z,106944.00
2018-07-22T12:19:15.359Z,101728.00
2018-07-22T12:20:23.570Z,105024.00
2018-07-22T12:21:31.786Z,102432.00
2018-07-22T12:22:39.996Z,97984.00
2018-07-22T12:23:48.196Z,98976.00
2018-07-22T12:24:56.898Z,80832.00
2018-07-22T12:26:04.546Z,87104.00
2018-07-22T12:27:13.714Z,88288.00
2018-07-22T12:28:20.862Z,102144.00
2018-07-22T12:29:29.029Z,91040.00
2018-07-22T12:30:38.214Z,82656.00
2018-07-22T12:31:45.373Z,107200.00
2018-07-22T12:32:53.496Z,109376.00
2018-07-22T12:34:01.672Z,108320.00
2018-07-22T12:35:09.860Z,106752.00
2018-07-22T12:36:18.059Z,95392.00
2018-07-22T12:37:26.258Z,89408.00
2018-07-22T12:38:34.432Z,75168.00
2018-07-22T12:39:42.573Z,66720.00
2018-07-22T12:40:50.687Z,66400.00
2018-07-22T12:41:58.767Z,65600.00
2018-07-22T12:43:06.798Z,71264.00
2018-07-22T12:44:14.823Z,74336.00
2018-07-22T12:45:22.828Z,70304.00
2018-07-22T12:46:30.888Z,84096.00
2018-07-22T12:47:38.837Z,78368.00
2018-07-22T12:48:46.809Z,103744.00
2018-07-22T12:49:54.822Z,101856.00
2018-07-22T12:51:02.841Z,104384.00
2018-07-22T12:52:10.919Z,103744.00
2018-07-22T12:53:19.010Z,99936.00
2018-07-22T12:54:27.119Z,102336.00
2018-07-22T12:55:35.261Z,87136.00
2018-07-22T12:56:43.404Z,73312.00
2018-07-22T12:57:51.532Z,102304.00
2018-07-22T12:58:59.662Z,86880.00
2018-07-22T13:00:07.897Z,82208.00
2018-07-22T13:01:15.936Z,81984.00
2018-07-22T13:02:24.039Z,70464.00
2018-07-22T13:03:32.096Z,34144.00
2018-07-22T13:04:40.088Z,52352.00
2018-07-22T13:05:48.040Z,91712.00
2018-07-22T13:06:56.094Z,87424.00
2018-07-22T13:08:03.974Z,90176.00
2018-07-22T13:09:11.939Z,87456.00
2018-07-22T13:10:19.933Z,84992.00
2018-07-22T13:11:27.929Z,79488.00
2018-07-22T13:12:35.918Z,78176.00
2018-07-22T13:13:43.907Z,86400.00
2018-07-22T13:14:51.901Z,96864.00
2018-07-22T13:15:59.933Z,91168.00
2018-07-22T13:17:07.971Z,82624.00
2018-07-22T13:18:16.010Z,92608.00
2018-07-22T13:19:24.050Z,27104.00
2018-07-22T13:20:32.031Z,25728.00
2018-07-22T13:21:39.964Z,24032.00
2018-07-22T13:22:47.819Z,22944.00
2018-07-22T13:23:55.620Z,21536.00
2018-07-22T13:25:03.368Z,20608.00
2018-07-22T13:26:11.075Z,17920.00
2018-07-22T13:27:18.746Z,15960.00
2018-07-22T13:28:26.350Z,15660.00
2018-07-22T13:29:33.917Z,16048.00
2018-07-22T13:30:41.460Z,16476.00
2018-07-22T13:31:48.961Z,17376.00
2018-07-22T13:32:56.430Z,18560.00
2018-07-22T13:34:03.883Z,20256.00